Time;durP1;ratioP1;P1;durP2;ratioP2;P2;SDS_P1;SDS_P2;PMS_P1;PMS_P2;Temp;Humidity;BMP_temperature;BMP_pressure;BME280_temperature;BME280_humidity;BME280_pressure;Samples;Min_cycle;Max_cycle;Signal;HPM_P1;HPM_P2
2021/09/04 00:01:46;;;;;;;26.60;14.20;;;;;;;13.62;86.27;102135.72;4935459;29;20059;-72
2021/09/04 00:04:11;;;;;;;28.15;13.45;;;;;;;13.55;86.43;102135.09;4936716;29;20036;-72
2021/09/04 00:06:36;;;;;;;24.98;13.48;;;;;;;13.48;86.83;102126.47;4936291;29;20020;-72
2021/09/04 00:09:02;;;;;;;28.67;13.45;;;;;;;13.46;86.84;102132.78;4935587;29;20019;-71
2021/09/04 00:11:28;;;;;;;24.52;13.18;;;;;;;13.47;86.63;102130.06;4935101;29;20476;-73
2021/09/04 00:13:53;;;;;;;27.80;13.15;;;;;;;13.43;86.73;102131.97;4929894;29;20470;-73
2021/09/04 00:16:19;;;;;;;26.15;13.43;;;;;;;13.41;86.53;102135.59;4916535;29;20565;-72
2021/09/04 00:18:44;;;;;;;27.73;13.68;;;;;;;13.40;86.91;102133.84;4917248;29;20028;-72
2021/09/04 00:21:09;;;;;;;27.35;13.27;;;;;;;13.39;86.92;102138.31;4916152;29;20071;-72
2021/09/04 00:23:34;;;;;;;23.67;13.65;;;;;;;13.37;86.65;102129.50;4916313;29;20036;-73
2021/09/04 00:26:00;;;;;;;25.10;12.98;;;;;;;13.33;86.97;102127.84;4917272;29;20028;-64
2021/09/04 00:28:25;;;;;;;28.48;13.52;;;;;;;13.30;87.16;102127.97;4917084;29;20377;-64
2021/09/04 00:30:50;;;;;;;30.83;13.63;;;;;;;13.32;87.46;102125.25;4915922;29;20054;-65
2021/09/04 00:33:16;;;;;;;25.80;13.00;;;;;;;13.30;87.05;102122.66;4916352;29;20076;-69
2021/09/04 00:35:41;;;;;;;27.55;13.38;;;;;;;13.28;86.96;102117.38;4917398;29;20492;-66
2021/09/04 00:38:06;;;;;;;29.08;13.48;;;;;;;13.25;86.67;102121.97;4916844;29;20027;-72
2021/09/04 00:40:32;;;;;;;29.80;13.57;;;;;;;13.23;86.81;102122.00;4915912;29;20035;-71
2021/09/04 00:42:57;;;;;;;23.52;12.38;;;;;;;13.24;86.50;102129.06;4916135;29;20086;-70
2021/09/04 00:45:22;;;;;;;28.13;13.75;;;;;;;13.19;86.72;102124.84;4916884;29;20055;-72
2021/09/04 00:47:58;;;;;;;29.00;13.13;;;;;;;13.14;87.05;102118.81;4915942;29;20443;-72
2021/09/04 00:50:25;;;;;;;28.77;13.75;;;;;;;13.14;86.99;102126.78;4917064;29;20024;-72
2021/09/04 00:52:51;;;;;;;24.70;13.30;;;;;;;13.05;87.11;102115.53;4927052;29;20233;-72
2021/09/04 00:55:17;;;;;;;27.95;13.35;;;;;;;13.02;87.47;102115.66;4933650;29;20448;-72
2021/09/04 00:57:42;;;;;;;25.10;13.05;;;;;;;12.99;87.46;102112.22;4933931;29;20095;-72
2021/09/04 01:00:09;;;;;;;26.23;13.65;;;;;;;12.97;87.76;102114.06;4933050;29;20039;-72
2021/09/04 01:02:34;;;;;;;25.33;13.50;;;;;;;12.97;87.89;102106.06;4935123;29;20031;-72
2021/09/04 01:04:59;;;;;;;23.98;12.85;;;;;;;12.97;87.70;102099.00;4935008;29;20114;-72
2021/09/04 01:07:25;;;;;;;24.27;12.40;;;;;;;12.95;87.88;102096.38;4936030;29;20449;-73
2021/09/04 01:09:51;;;;;;;25.55;12.57;;;;;;;12.95;87.85;102098.16;4936729;29;20054;-71
2021/09/04 01:12:16;;;;;;;27.60;12.32;;;;;;;12.90;87.83;102101.00;4938264;29;20031;-64
2021/09/04 01:14:42;;;;;;;25.73;12.27;;;;;;;12.90;87.44;102095.69;4950180;29;20058;-65
2021/09/04 01:17:07;;;;;;;29.67;12.80;;;;;;;12.89;88.17;102093.94;4955938;29;20035;-71
2021/09/04 01:19:32;;;;;;;25.60;12.00;;;;;;;12.90;87.65;102098.34;4957263;29;20509;-69
2021/09/04 01:21:59;;;;;;;23.27;12.07;;;;;;;12.90;87.81;102094.78;4955629;29;20031;-65
2021/09/04 01:24:24;;;;;;;23.80;12.02;;;;;;;12.88;87.73;102107.28;4957158;29;20027;-65
2021/09/04 01:26:50;;;;;;;28.40;11.82;;;;;;;12.85;87.69;102092.31;4956849;29;20486;-72
2021/09/04 01:29:16;;;;;;;23.48;11.60;;;;;;;12.88;87.76;102094.84;4956088;29;20031;-72
2021/09/04 01:31:42;;;;;;;27.30;12.70;;;;;;;12.82;87.51;102100.38;4948934;29;20139;-72
2021/09/04 01:34:07;;;;;;;22.67;12.25;;;;;;;12.77;87.49;102089.91;4938100;29;20119;-72
2021/09/04 01:36:35;;;;;;;28.50;13.13;;;;;;;12.76;88.05;102090.84;4937968;29;20038;-71
2021/09/04 01:39:04;;;;;;;25.50;12.10;;;;;;;12.76;87.82;102103.22;4938623;29;20176;-72
2021/09/04 01:41:29;;;;;;;25.45;12.18;;;;;;;12.72;87.95;102097.16;4937755;29;20028;-66
2021/09/04 01:43:55;;;;;;;23.25;11.75;;;;;;;12.75;88.12;102093.56;4938662;29;20107;-65
2021/09/04 01:46:21;;;;;;;27.40;12.18;;;;;;;12.73;87.52;102090.91;4937508;29;20388;-64
2021/09/04 01:48:46;;;;;;;25.23;12.93;;;;;;;12.71;87.78;102094.53;4938523;29;20087;-65
2021/09/04 01:51:12;;;;;;;23.73;12.60;;;;;;;12.68;87.76;102095.53;4938012;29;20024;-65
2021/09/04 01:53:37;;;;;;;29.48;13.18;;;;;;;12.69;88.09;102091.09;4938450;29;20039;-67
2021/09/04 01:56:03;;;;;;;21.35;11.70;;;;;;;12.66;87.89;102094.72;4941270;29;20046;-69
2021/09/04 01:58:28;;;;;;;24.00;12.32;;;;;;;12.65;87.81;102098.28;4939676;29;20024;-65
2021/09/04 02:00:53;;;;;;;30.67;12.45;;;;;;;12.62;87.98;102085.97;4956483;28;20027;-64
2021/09/04 02:03:19;;;;;;;21.25;12.73;;;;;;;12.60;87.77;102090.47;4954889;29;20028;-64
2021/09/04 02:05:45;;;;;;;24.63;12.95;;;;;;;12.58;88.12;102100.28;4956661;29;20039;-64
2021/09/04 02:08:10;;;;;;;30.02;12.93;;;;;;;12.54;88.45;102097.78;4956077;29;20040;-65
2021/09/04 02:10:36;;;;;;;25.83;12.25;;;;;;;12.51;88.23;102080.16;4954629;28;20035;-65
2021/09/04 02:13:01;;;;;;;26.73;13.05;;;;;;;12.52;88.19;102088.97;4956366;29;20047;-63
2021/09/04 02:15:26;;;;;;;22.35;11.98;;;;;;;12.50;88.37;102090.84;4954489;29;20039;-64
2021/09/04 02:17:51;;;;;;;21.52;11.38;;;;;;;12.49;88.72;102081.13;4955031;28;20091;-64
2021/09/04 02:20:17;;;;;;;26.35;12.80;;;;;;;12.49;88.55;102086.44;4954956;29;20062;-64
2021/09/04 02:22:42;;;;;;;26.25;12.63;;;;;;;12.46;88.47;102085.59;4956134;29;20039;-65
2021/09/04 02:25:08;;;;;;;27.45;12.73;;;;;;;12.49;88.70;102092.59;4954243;29;20019;-64
2021/09/04 02:27:34;;;;;;;23.38;12.23;;;;;;;12.45;88.88;102083.00;4955927;29;20030;-66
2021/09/04 02:29:59;;;;;;;22.75;12.00;;;;;;;12.44;88.98;102084.81;4954565;29;20027;-65
2021/09/04 02:32:25;;;;;;;25.80;12.43;;;;;;;12.45;89.11;102077.69;4955206;28;20046;-64
2021/09/04 02:34:50;;;;;;;30.48;12.38;;;;;;;12.44;88.99;102075.94;4955518;29;20349;-65
2021/09/04 02:37:15;;;;;;;27.98;12.77;;;;;;;12.45;88.61;102077.69;4954827;29;20110;-66
2021/09/04 02:39:42;;;;;;;25.55;12.32;;;;;;;12.46;88.95;102067.00;4955553;29;20033;-68
2021/09/04 02:42:08;;;;;;;26.35;12.50;;;;;;;12.40;89.10;102067.19;4954180;29;20057;-72
2021/09/04 02:44:33;;;;;;;26.38;12.90;;;;;;;12.40;89.29;102074.31;4955712;29;20464;-69
2021/09/04 02:46:59;;;;;;;25.67;12.68;;;;;;;12.40;89.33;102077.81;4953862;29;20062;-65
2021/09/04 02:49:24;;;;;;;27.17;12.98;;;;;;;12.38;89.15;102073.50;4955468;28;20037;-64
2021/09/04 02:51:49;;;;;;;24.67;12.32;;;;;;;12.35;89.39;102076.25;4953736;28;20035;-65
2021/09/04 02:54:15;;;;;;;28.25;12.98;;;;;;;12.32;89.48;102074.56;4955527;28;20026;-67
2021/09/04 02:56:40;;;;;;;29.48;12.93;;;;;;;12.30;89.58;102076.41;4936684;29;20456;-64
2021/09/04 02:59:05;;;;;;;30.00;12.95;;;;;;;12.27;89.51;102072.03;4954625;29;20034;-64
2021/09/04 03:01:30;;;;;;;30.50;13.15;;;;;;;12.25;89.36;102071.25;4937398;29;20050;-64
2021/09/04 03:03:56;;;;;;;31.45;13.40;;;;;;;12.22;89.75;102075.78;4936235;29;20028;-65
2021/09/04 03:06:21;;;;;;;29.40;12.93;;;;;;;12.21;89.99;102071.38;4936114;29;20038;-64
2021/09/04 03:08:47;;;;;;;27.98;14.45;;;;;;;12.23;89.88;102077.53;4937481;29;20059;-65
2021/09/04 03:11:12;;;;;;;29.75;12.90;;;;;;;12.18;89.71;102075.00;4936900;29;20368;-65
2021/09/04 03:13:37;;;;;;;32.38;13.93;;;;;;;12.17;89.89;102077.72;4932181;29;20049;-65
2021/09/04 03:16:03;;;;;;;26.92;13.77;;;;;;;12.17;89.97;102081.22;4917319;29;20040;-64
2021/09/04 03:18:29;;;;;;;26.80;13.70;;;;;;;12.15;89.90;102067.16;4917754;29;20409;-72
2021/09/04 03:20:54;;;;;;;26.15;13.13;;;;;;;12.15;90.27;102074.22;4917188;29;20032;-64
2021/09/04 03:23:19;;;;;;;28.50;13.85;;;;;;;12.18;89.83;102072.34;4918135;29;20044;-64
2021/09/04 03:25:45;;;;;;;27.10;13.13;;;;;;;12.13;90.11;102061.91;4916798;29;20024;-64
2021/09/04 03:28:10;;;;;;;28.33;14.20;;;;;;;12.15;89.76;102063.59;4921065;29;20023;-64
2021/09/04 03:30:35;;;;;;;29.85;14.05;;;;;;;12.15;90.07;102061.84;4933611;29;20376;-66
2021/09/04 03:33:01;;;;;;;30.00;14.10;;;;;;;12.12;90.01;102067.22;4935761;29;20035;-64
2021/09/04 03:35:27;;;;;;;29.73;15.13;;;;;;;12.12;90.27;102067.22;4935628;29;20476;-65
2021/09/04 03:37:53;;;;;;;35.38;14.57;;;;;;;12.10;90.49;102066.44;4933957;29;20028;-72
2021/09/04 03:40:18;;;;;;;33.63;14.77;;;;;;;12.11;90.68;102061.06;4933839;29;20032;-73
2021/09/04 03:42:43;;;;;;;29.17;14.25;;;;;;;12.19;90.74;102055.50;4935710;29;20030;-65
2021/09/04 03:45:09;;;;;;;29.15;14.63;;;;;;;12.28;90.69;102062.31;4935598;29;20024;-64
2021/09/04 03:47:34;;;;;;;31.50;15.20;;;;;;;12.38;90.01;102058.44;4934238;29;20548;-69
2021/09/04 03:50:00;;;;;;;28.45;14.27;;;;;;;12.46;89.78;102058.19;4934109;29;20115;-65
2021/09/04 03:52:25;;;;;;;32.72;15.07;;;;;;;12.51;89.72;102064.22;4935572;29;20027;-65
2021/09/04 03:54:50;;;;;;;33.28;14.48;;;;;;;12.62;89.66;102063.84;4935645;29;20060;-65
2021/09/04 03:57:16;;;;;;;33.35;14.80;;;;;;;12.70;89.09;102059.16;4935393;29;20115;-65
2021/09/04 03:59:41;;;;;;;27.23;13.73;;;;;;;12.73;89.17;102056.38;4934046;29;20036;-64
2021/09/04 04:02:06;;;;;;;28.38;14.32;;;;;;;12.76;89.04;102058.06;4933521;29;20477;-64
2021/09/04 04:04:32;;;;;;;30.30;14.68;;;;;;;12.83;88.80;102059.59;4923138;29;20039;-64
2021/09/04 04:06:57;;;;;;;29.60;14.75;;;;;;;12.90;88.83;102060.22;4916367;29;20076;-64
2021/09/04 04:09:22;;;;;;;33.25;16.08;;;;;;;12.90;88.52;102065.53;4917077;29;20058;-68
2021/09/04 04:11:47;;;;;;;34.78;15.60;;;;;;;12.93;88.31;102070.78;4917274;29;20400;-71
2021/09/04 04:14:13;;;;;;;26.92;15.05;;;;;;;12.92;88.67;102063.72;4916278;29;20055;-65
2021/09/04 04:16:38;;;;;;;29.58;15.20;;;;;;;12.98;88.59;102074.13;4916340;29;20040;-66
2021/09/04 04:19:03;;;;;;;29.95;14.40;;;;;;;13.00;88.30;102074.94;4917499;29;20024;-64
2021/09/04 04:21:29;;;;;;;32.45;15.52;;;;;;;13.01;88.29;102076.69;4917228;29;20104;-64
2021/09/04 04:23:54;;;;;;;31.40;15.55;;;;;;;13.07;88.02;102087.09;4918662;29;20087;-66
2021/09/04 04:26:20;;;;;;;31.20;16.05;;;;;;;13.02;88.19;102075.75;4935228;29;20380;-65
2021/09/04 04:28:45;;;;;;;28.15;15.48;;;;;;;13.01;88.34;102070.50;4933480;29;20421;-71
2021/09/04 04:31:10;;;;;;;32.75;14.95;;;;;;;13.08;88.90;102077.31;4935131;29;20491;-71
2021/09/04 04:33:36;;;;;;;32.25;15.50;;;;;;;13.09;88.33;102076.41;4933316;29;20035;-65
2021/09/04 04:36:01;;;;;;;30.27;15.15;;;;;;;13.13;88.44;102069.19;4933364;29;20404;-69
2021/09/04 04:38:26;;;;;;;34.58;15.88;;;;;;;13.13;87.98;102078.03;4934812;29;20035;-70
2021/09/04 04:40:52;;;;;;;32.10;16.15;;;;;;;13.14;88.19;102076.25;4935921;29;20035;-64
2021/09/04 04:43:17;;;;;;;36.80;16.48;;;;;;;13.16;87.96;102085.91;4936966;29;20039;-66
2021/09/04 04:45:42;;;;;;;29.30;15.95;;;;;;;13.14;88.65;102081.56;4937142;29;20043;-67
2021/09/04 04:48:08;;;;;;;31.13;16.20;;;;;;;13.18;88.29;102083.19;4938738;29;20102;-65
2021/09/04 04:50:33;;;;;;;30.02;15.63;;;;;;;13.18;88.27;102084.03;4938634;29;20032;-72
2021/09/04 04:52:59;;;;;;;30.88;16.35;;;;;;;13.22;88.46;102087.47;4936521;29;20436;-67
2021/09/04 04:55:24;;;;;;;36.83;16.42;;;;;;;13.24;88.08;102086.50;4921999;29;20032;-65
2021/09/04 04:57:50;;;;;;;31.55;14.63;;;;;;;13.20;88.00;102076.91;4919677;29;20171;-64
2021/09/04 05:00:15;;;;;;;31.85;16.02;;;;;;;13.22;88.21;102084.81;4919544;29;20114;-69
2021/09/04 05:02:41;;;;;;;30.00;15.25;;;;;;;13.19;88.13;102082.28;4933791;29;20039;-72
2021/09/04 05:05:08;;;;;;;35.97;17.70;;;;;;;13.19;88.50;102085.78;4936629;29;20040;-65
2021/09/04 05:07:33;;;;;;;32.50;16.35;;;;;;;13.19;88.34;102085.78;4933339;29;20477;-67
2021/09/04 05:09:59;;;;;;;32.80;16.45;;;;;;;13.21;88.53;102088.38;4919294;29;20035;-65
2021/09/04 05:12:24;;;;;;;32.97;16.75;;;;;;;13.19;88.92;102087.59;4919822;29;20028;-65
2021/09/04 05:14:50;;;;;;;33.47;17.17;;;;;;;13.24;88.85;102096.28;4925827;29;20067;-66
2021/09/04 05:17:15;;;;;;;32.08;16.50;;;;;;;13.31;88.23;102099.56;4938330;29;20472;-65
2021/09/04 05:19:40;;;;;;;31.27;16.15;;;;;;;13.33;88.21;102098.59;4938080;29;20044;-69
2021/09/04 05:22:06;;;;;;;32.40;15.77;;;;;;;13.37;87.49;102108.22;4937803;29;20395;-65
2021/09/04 05:24:31;;;;;;;32.53;15.32;;;;;;;13.35;88.09;102104.75;4936576;29;20072;-65
2021/09/04 05:26:56;;;;;;;30.65;16.65;;;;;;;13.40;88.19;102099.25;4935906;29;20028;-70
2021/09/04 05:29:22;;;;;;;30.52;15.98;;;;;;;13.41;88.16;102103.66;4937471;29;20035;-66
2021/09/04 05:31:47;;;;;;;33.28;16.17;;;;;;;13.43;87.79;102091.19;4937847;29;20026;-73
2021/09/04 05:34:12;;;;;;;32.17;15.88;;;;;;;13.43;87.47;102108.00;4918989;29;20388;-65
2021/09/04 05:36:38;;;;;;;29.98;15.30;;;;;;;13.39;87.44;102100.22;4936176;29;20036;-67
2021/09/04 05:39:03;;;;;;;34.17;16.15;;;;;;;13.37;87.50;102102.91;4920217;29;20091;-65
2021/09/04 05:41:28;;;;;;;30.13;15.55;;;;;;;13.39;87.38;102090.44;4937645;29;20449;-71
2021/09/04 05:43:54;;;;;;;32.35;16.48;;;;;;;13.39;87.35;102087.75;4935691;29;20476;-71
2021/09/04 05:46:19;;;;;;;35.33;16.73;;;;;;;13.40;87.76;102097.50;4929654;29;20034;-66
2021/09/04 05:48:45;;;;;;;30.35;15.40;;;;;;;13.43;87.43;102085.88;4934060;29;20028;-63
2021/09/04 05:51:10;;;;;;;32.58;16.75;;;;;;;13.43;87.28;102093.84;4935973;29;20028;-70
2021/09/04 05:53:38;;;;;;;36.72;16.38;;;;;;;13.48;87.14;102085.69;4937206;29;20035;-67
2021/09/04 05:56:04;;;;;;;30.52;15.48;;;;;;;13.50;87.17;102086.50;4918552;29;20031;-67
2021/09/04 05:58:29;;;;;;;30.65;15.68;;;;;;;13.52;87.40;102085.50;4920524;29;20384;-67
2021/09/04 06:00:55;;;;;;;29.30;14.40;;;;;;;13.55;86.71;102092.53;4934030;29;20035;-69
2021/09/04 06:03:20;;;;;;;29.65;14.50;;;;;;;13.55;86.90;102087.19;4936182;29;20028;-69
2021/09/04 06:05:45;;;;;;;29.38;14.50;;;;;;;13.64;86.10;102092.16;4936178;29;20030;-63
2021/09/04 06:08:11;;;;;;;28.92;15.13;;;;;;;13.65;86.60;102093.06;4935700;29;20125;-71
2021/09/04 06:10:36;;;;;;;28.67;15.00;;;;;;;13.70;86.15;102088.41;4930537;29;20168;-70
2021/09/04 06:13:02;;;;;;;32.33;15.00;;;;;;;13.69;85.85;102090.19;4918079;29;20378;-71
2021/09/04 06:15:27;;;;;;;26.20;13.65;;;;;;;13.76;85.96;102097.03;4935998;29;20059;-72
2021/09/04 06:17:53;;;;;;;29.23;14.35;;;;;;;13.70;85.01;102096.41;4938727;29;20028;-70
2021/09/04 06:20:18;;;;;;;29.30;14.75;;;;;;;13.68;85.44;102084.94;4955776;29;20027;-71
2021/09/04 06:22:43;;;;;;;29.23;15.27;;;;;;;13.71;84.96;102087.50;4955636;28;20039;-72
2021/09/04 06:25:10;;;;;;;25.48;14.60;;;;;;;13.76;85.22;102094.38;4952588;29;20027;-71
2021/09/04 06:27:35;;;;;;;27.33;15.25;;;;;;;13.75;85.38;102100.63;4956421;29;20041;-71
2021/09/04 06:30:02;;;;;;;29.95;15.15;;;;;;;13.79;84.55;102100.53;4954856;28;20031;-66
2021/09/04 06:32:27;;;;;;;30.52;14.93;;;;;;;13.83;85.67;102097.66;4956379;29;20023;-67
2021/09/04 06:34:54;;;;;;;29.35;14.90;;;;;;;13.89;84.97;102113.41;4955712;28;21493;-69
2021/09/04 06:37:19;;;;;;;26.38;14.05;;;;;;;13.79;84.66;102105.84;4936288;29;20440;-67
2021/09/04 06:39:44;;;;;;;25.77;13.65;;;;;;;13.75;85.16;102110.41;4939758;29;20035;-71
2021/09/04 06:42:10;;;;;;;29.15;14.43;;;;;;;13.78;85.35;102102.28;4955641;29;20110;-70
2021/09/04 06:44:35;;;;;;;31.23;15.10;;;;;;;13.87;85.09;102101.06;4953345;28;20034;-66
2021/09/04 06:47:00;;;;;;;29.30;14.75;;;;;;;13.95;84.86;102109.63;4953942;28;20031;-71
2021/09/04 06:49:26;;;;;;;27.60;13.63;;;;;;;14.04;84.74;102103.06;4956022;29;20027;-67
2021/09/04 06:51:51;;;;;;;26.08;13.73;;;;;;;14.13;83.76;102109.84;4955821;29;20038;-67
2021/09/04 06:54:16;;;;;;;25.67;13.07;;;;;;;14.17;83.27;102109.66;4955473;29;20445;-67
2021/09/04 06:56:42;;;;;;;29.17;13.35;;;;;;;14.22;83.47;102104.13;4940239;29;20035;-65
2021/09/04 06:59:10;;;;;;;24.83;12.93;;;;;;;14.23;82.39;102105.88;4936188;29;20035;-67
2021/09/04 07:01:36;;;;;;;25.58;12.85;;;;;;;14.23;82.26;102111.22;4946300;29;20085;-67
2021/09/04 07:04:01;;;;;;;25.50;13.70;;;;;;;14.30;82.27;102111.84;4954848;28;20612;-68
2021/09/04 07:06:26;;;;;;;24.92;13.13;;;;;;;14.34;81.65;102116.13;4944178;29;20031;-69
2021/09/04 07:08:52;;;;;;;21.73;12.43;;;;;;;14.41;81.84;102109.59;4939637;29;20032;-70
2021/09/04 07:11:17;;;;;;;19.88;12.20;;;;;;;14.51;81.03;102113.63;4952772;29;20180;-68
2021/09/04 07:13:42;;;;;;;26.13;12.32;;;;;;;14.48;79.91;102112.91;4954799;28;20457;-67
2021/09/04 07:16:08;;;;;;;21.65;12.32;;;;;;;14.45;80.42;102107.69;4952431;29;20035;-68
2021/09/04 07:18:33;;;;;;;19.90;11.27;;;;;;;14.55;79.66;102111.69;4942758;29;20041;-68
2021/09/04 07:20:58;;;;;;;22.10;12.68;;;;;;;14.58;80.09;102119.59;4920926;29;20528;-69
2021/09/04 07:23:23;;;;;;;19.83;11.70;;;;;;;14.70;79.31;102116.41;4936450;29;20075;-67
2021/09/04 07:25:49;;;;;;;26.90;13.98;;;;;;;14.73;78.94;102120.75;4936077;29;20129;-67
2021/09/04 07:28:14;;;;;;;23.90;12.75;;;;;;;14.73;79.43;102124.31;4947865;29;20039;-71
2021/09/04 07:30:39;;;;;;;19.30;11.77;;;;;;;14.67;79.13;102121.03;4954496;29;20147;-66
2021/09/04 07:33:05;;;;;;;24.50;13.40;;;;;;;14.69;78.51;102116.50;4954995;29;20031;-66
2021/09/04 07:35:30;;;;;;;24.20;12.85;;;;;;;14.53;79.79;102122.44;4954284;29;20353;-70
2021/09/04 07:37:55;;;;;;;21.95;11.93;;;;;;;14.59;79.61;102124.84;4948552;29;20038;-67
2021/09/04 07:40:21;;;;;;;19.15;11.65;;;;;;;14.67;79.04;102131.72;4945005;29;20054;-67
2021/09/04 07:42:47;;;;;;;20.70;12.45;;;;;;;14.73;79.05;102132.31;4953048;29;20031;-69
2021/09/04 07:45:12;;;;;;;21.70;11.43;;;;;;;14.75;78.75;102122.44;4953555;29;20385;-66
2021/09/04 07:47:38;;;;;;;20.35;11.13;;;;;;;14.83;79.04;102134.59;4952495;29;20038;-67
2021/09/04 07:50:05;;;;;;;24.20;11.80;;;;;;;14.87;78.80;102129.06;4954125;29;20722;-69
2021/09/04 07:52:30;;;;;;;22.75;12.75;;;;;;;14.96;77.08;102134.94;4950872;29;20038;-67
2021/09/04 07:54:55;;;;;;;21.30;11.55;;;;;;;15.02;77.08;102132.84;4952018;29;20019;-70
2021/09/04 07:57:21;;;;;;;22.35;11.30;;;;;;;15.12;77.09;102132.47;4952404;29;20111;-68
2021/09/04 07:59:46;;;;;;;20.05;10.95;;;;;;;15.14;76.23;102122.59;4944892;29;20031;-68
2021/09/04 08:02:12;;;;;;;18.08;11.07;;;;;;;15.23;76.62;102130.22;4951569;29;20035;-71
2021/09/04 08:04:37;;;;;;;22.15;12.25;;;;;;;15.34;75.34;102122.56;4950202;29;20114;-69
2021/09/04 08:07:03;;;;;;;20.77;11.55;;;;;;;15.24;75.61;102119.47;4953200;29;20073;-67
2021/09/04 08:09:28;;;;;;;19.65;11.10;;;;;;;15.28;75.73;102114.88;4954123;29;20098;-65
2021/09/04 08:11:53;;;;;;;19.98;11.27;;;;;;;15.31;74.95;102122.72;4954113;29;20042;-64
2021/09/04 08:14:19;;;;;;;16.58;10.35;;;;;;;15.44;74.20;102115.03;4949631;29;20400;-68
2021/09/04 08:16:44;;;;;;;19.63;10.65;;;;;;;15.53;75.55;102121.78;4940304;28;20036;-72
2021/09/04 08:19:09;;;;;;;16.35;9.73;;;;;;;15.80;73.36;102122.28;4942581;29;20026;-65
2021/09/04 08:21:35;;;;;;;17.48;10.88;;;;;;;16.05;73.51;102129.22;4941291;29;20034;-69
2021/09/04 08:24:00;;;;;;;18.20;9.57;;;;;;;16.20;72.68;102122.25;4958163;29;20058;-68
2021/09/04 08:26:26;;;;;;;16.65;9.50;;;;;;;16.39;72.10;102116.88;4955482;29;20449;-69
2021/09/04 08:28:51;;;;;;;17.15;9.85;;;;;;;16.45;71.64;102113.91;4957560;28;20023;-69
2021/09/04 08:31:16;;;;;;;18.38;9.45;;;;;;;16.67;69.67;102120.84;4957652;29;20031;-66
2021/09/04 08:33:42;;;;;;;18.38;10.30;;;;;;;16.71;70.17;102126.00;4956214;29;20035;-70
2021/09/04 08:36:07;;;;;;;18.77;10.90;;;;;;;16.52;69.76;102120.69;4957906;29;20037;-66
2021/09/04 08:38:32;;;;;;;15.88;10.23;;;;;;;16.30;70.86;102123.53;4957939;29;20029;-70
2021/09/04 08:40:58;;;;;;;17.02;9.50;;;;;;;16.50;70.94;102127.06;4957923;29;20543;-65
2021/09/04 08:43:23;;;;;;;17.88;10.07;;;;;;;16.48;69.85;102127.13;4953971;28;20035;-66
2021/09/04 08:45:49;;;;;;;19.15;10.00;;;;;;;16.28;70.75;102125.44;4939258;29;20083;-66
2021/09/04 08:48:15;;;;;;;18.30;9.48;;;;;;;16.40;70.56;102131.97;4957748;29;20023;-66
2021/09/04 08:50:41;;;;;;;17.67;9.75;;;;;;;16.51;70.30;102126.97;4957729;28;20034;-65
2021/09/04 08:53:06;;;;;;;21.05;9.50;;;;;;;16.60;69.98;102135.47;4953828;29;20038;-70
2021/09/04 08:55:32;;;;;;;21.02;8.90;;;;;;;16.58;69.88;102124.00;4939242;29;20118;-65
2021/09/04 08:57:58;;;;;;;18.20;9.65;;;;;;;16.75;69.80;102131.16;4938503;29;20035;-68
2021/09/04 09:00:34;;;;;;;18.55;9.63;;;;;;;16.95;68.36;102128.38;4941406;29;20023;-65
2021/09/04 09:03:01;;;;;;;16.02;8.55;;;;;;;17.05;67.31;102142.16;4953266;29;20028;-65
2021/09/04 09:05:38;;;;;;;17.85;10.10;;;;;;;17.02;68.78;102135.16;4944890;29;20023;-64
2021/09/04 09:08:04;;;;;;;15.10;9.80;;;;;;;17.14;67.32;102130.97;4950811;29;20089;-67
2021/09/04 09:10:34;;;;;;;18.75;9.48;;;;;;;16.86;67.79;102137.69;4956440;29;20023;-64
2021/09/04 09:13:00;;;;;;;16.17;9.60;;;;;;;16.92;67.67;102138.38;4955077;28;20559;-64
2021/09/04 09:15:30;;;;;;;16.05;8.80;;;;;;;17.35;66.53;102130.78;4952568;29;20071;-66
2021/09/04 09:18:17;;;;;;;16.55;9.43;;;;;;;17.46;66.52;102132.91;4953279;29;20127;-63
2021/09/04 09:21:02;;;;;;;17.42;9.75;;;;;;;17.54;65.92;102128.00;4955591;29;20041;-66
2021/09/04 09:23:29;;;;;;;17.38;10.48;;;;;;;17.87;64.94;102131.63;4942666;29;20560;-66
2021/09/04 09:25:55;;;;;;;14.93;8.55;;;;;;;17.69;64.89;102128.97;4941285;29;20031;-68
2021/09/04 09:28:22;;;;;;;17.60;9.52;;;;;;;17.73;65.34;102118.97;4949118;28;20050;-67
2021/09/04 09:30:58;;;;;;;15.10;9.25;;;;;;;18.10;64.80;102123.16;4949643;29;20036;-66
2021/09/04 09:33:28;;;;;;;11.60;8.07;;;;;;;18.76;62.03;102118.50;4944774;29;20480;-66
2021/09/04 09:35:56;;;;;;;13.57;8.10;;;;;;;19.06;61.04;102130.22;4948647;29;20036;-68
2021/09/04 09:38:28;;;;;;;14.48;8.75;;;;;;;18.66;61.28;102126.22;4953720;28;20027;-69
2021/09/04 09:40:55;;;;;;;16.35;9.05;;;;;;;18.45;62.33;102116.75;4945289;29;20055;-65
2021/09/04 09:43:26;;;;;;;14.50;9.27;;;;;;;18.53;62.42;102117.19;4950362;28;20034;-65
2021/09/04 09:45:57;;;;;;;13.85;8.70;;;;;;;19.01;60.45;102113.53;4946249;29;20106;-65
2021/09/04 09:48:24;;;;;;;17.13;8.65;;;;;;;19.00;60.97;102118.00;4947234;29;20035;-68
2021/09/04 09:50:51;;;;;;;15.13;8.85;;;;;;;19.34;58.95;102113.28;4953263;28;20494;-63
2021/09/04 09:53:18;;;;;;;16.15;8.20;;;;;;;19.49;59.58;102127.59;4943884;29;20035;-66
2021/09/04 09:55:46;;;;;;;12.90;8.10;;;;;;;19.36;58.57;102116.75;4932471;29;20051;-65
2021/09/04 09:58:12;;;;;;;14.02;8.25;;;;;;;19.28;60.08;102109.16;4953568;29;20041;-68
2021/09/04 10:00:39;;;;;;;16.23;8.07;;;;;;;19.60;59.35;102114.34;4956233;29;20031;-71
2021/09/04 10:03:06;;;;;;;16.83;8.80;;;;;;;19.59;59.11;102118.00;4953534;29;20050;-71
2021/09/04 10:05:31;;;;;;;11.35;7.40;;;;;;;19.94;59.16;102108.69;4956096;28;20039;-64
2021/09/04 10:07:58;;;;;;;14.23;8.82;;;;;;;20.19;57.28;102112.44;4943218;28;20028;-68
2021/09/04 10:10:25;;;;;;;14.35;7.88;;;;;;;21.71;54.56;102113.81;4967902;28;20026;-68
2021/09/04 10:12:51;;;;;;;14.85;9.70;;;;;;;22.24;52.16;102103.63;4957505;28;20035;-65
2021/09/04 10:15:20;;;;;;;13.43;8.18;;;;;;;23.00;50.85;102108.72;4939662;29;20634;-64
2021/09/04 10:17:51;;;;;;;21.75;8.88;;;;;;;23.46;48.34;102104.25;4939134;29;20019;-67
2021/09/04 10:20:16;;;;;;;;;;;;;;;24.00;45.20;102105.34;4937640;29;20028;-64
2021/09/04 10:22:43;;;;;;;15.75;9.38;;;;;;;23.91;45.84;102100.69;4944831;29;20397;-68
2021/09/04 10:25:14;;;;;;;13.10;9.52;;;;;;;23.60;45.85;102105.00;4955870;29;20523;-66
2021/09/04 10:27:44;;;;;;;13.50;8.07;;;;;;;23.34;46.99;102106.09;4945105;29;20067;-69
2021/09/04 10:30:27;;;;;;;12.75;8.48;;;;;;;23.45;46.71;102096.28;4941969;29;20065;-69
2021/09/04 10:32:56;;;;;;;13.02;8.02;;;;;;;23.37;47.77;102092.31;4953630;28;20038;-69
2021/09/04 10:35:42;;;;;;;12.38;8.00;;;;;;;24.18;46.22;102100.28;4945359;29;20035;-68
2021/09/04 10:38:19;;;;;;;16.17;8.18;;;;;;;24.73;43.98;102088.47;4948592;28;20027;-68
2021/09/04 10:41:07;;;;;;;15.23;8.93;;;;;;;24.93;43.70;102085.94;4953902;29;20035;-66
2021/09/04 10:43:33;;;;;;;13.10;9.13;;;;;;;24.85;43.06;102086.59;4952267;29;20035;-66
2021/09/04 10:46:00;;;;;;;12.60;8.20;;;;;;;25.12;43.96;102094.16;4947062;29;20027;-67
2021/09/04 10:48:36;;;;;;;12.30;8.30;;;;;;;25.44;42.49;102076.94;4951012;29;20083;-67
2021/09/04 10:51:09;;;;;;;13.00;8.82;;;;;;;26.21;40.94;102077.28;4950282;29;20023;-69
2021/09/04 10:53:45;;;;;;;12.88;8.30;;;;;;;26.39;40.54;102069.28;4953294;29;20032;-69
2021/09/04 10:56:25;;;;;;;14.45;9.07;;;;;;;26.13;43.19;102069.84;4952638;29;20028;-69
2021/09/04 10:58:51;;;;;;;14.68;8.40;;;;;;;26.30;41.18;102073.72;4943190;29;20162;-67
2021/09/04 11:01:27;;;;;;;12.60;8.88;;;;;;;26.03;41.52;102079.81;4948560;29;20031;-67
2021/09/04 11:03:55;;;;;;;14.50;8.30;;;;;;;25.83;41.84;102068.94;4943348;29;20046;-68
2021/09/04 11:06:25;;;;;;;16.20;9.32;;;;;;;25.63;41.83;102078.00;4951486;29;20031;-68
2021/09/04 11:08:52;;;;;;;16.17;9.10;;;;;;;25.40;42.80;102078.22;4940520;29;20400;-67